Time;durP1;ratioP1;P1;durP2;ratioP2;P2;SDS_P1;SDS_P2;PMS_P1;PMS_P2;Temp;Humidity;BMP_temperature;BMP_pressure;BME280_temperature;BME280_humidity;BME280_pressure;Samples;Min_cycle;Max_cycle;Signal;HPM_P1;HPM_P2
2023/03/24 00:02:20;;;;;;;7.30;3.80;;;9.20;99.90;;;;;;4982230;28;20225;-80
2023/03/24 00:04:49;;;;;;;5.63;3.67;;;9.30;99.90;;;;;;4967812;28;20234;-80
2023/03/24 00:07:18;;;;;;;8.57;3.47;;;9.30;99.90;;;;;;4967923;28;20224;-80
2023/03/24 00:09:45;;;;;;;5.30;3.27;;;9.30;99.90;;;;;;4961506;28;20632;-78
2023/03/24 00:12:17;;;;;;;5.00;3.23;;;9.30;99.90;;;;;;4982055;28;20336;-78
2023/03/24 00:14:46;;;;;;;5.10;3.07;;;9.40;99.90;;;;;;4962358;28;20241;-78
2023/03/24 00:17:16;;;;;;;6.77;2.90;;;9.30;99.90;;;;;;4959290;28;20328;-78
2023/03/24 00:19:45;;;;;;;4.93;3.13;;;9.40;99.90;;;;;;4964910;28;20256;-78
2023/03/24 00:22:13;;;;;;;4.97;2.80;;;9.40;99.90;;;;;;4959498;28;20300;-78
2023/03/24 00:24:40;;;;;;;4.70;2.80;;;9.40;99.90;;;;;;4961419;28;20230;-78
2023/03/24 00:27:07;;;;;;;4.30;3.10;;;9.40;99.90;;;;;;4962204;28;20226;-77
2023/03/24 00:29:35;;;;;;;5.00;2.87;;;9.40;99.90;;;;;;4962971;28;20245;-77
2023/03/24 00:32:02;;;;;;;4.47;2.70;;;9.40;99.90;;;;;;4960612;28;20321;-78
2023/03/24 00:34:30;;;;;;;7.53;3.33;;;9.30;99.90;;;;;;4966991;28;20271;-79
2023/03/24 00:36:56;;;;;;;4.03;2.43;;;9.30;99.90;;;;;;4964570;28;20234;-78
2023/03/24 00:39:23;;;;;;;5.37;3.00;;;9.30;99.90;;;;;;4964445;28;25553;-81
2023/03/24 00:41:50;;;;;;;6.70;2.90;;;9.30;99.90;;;;;;4963695;28;20321;-81
2023/03/24 00:44:17;;;;;;;3.90;2.80;;;9.20;99.90;;;;;;4977990;28;20292;-81
2023/03/24 00:46:45;;;;;;;8.17;3.10;;;9.20;99.90;;;;;;4981760;28;20229;-81
2023/03/24 00:49:14;;;;;;;5.97;3.33;;;9.20;99.90;;;;;;4965564;28;20972;-81
2023/03/24 00:51:44;;;;;;;5.13;3.03;;;9.20;99.90;;;;;;4966869;28;20226;-81
2023/03/24 00:54:12;;;;;;;5.43;2.60;;;9.20;99.90;;;;;;4985696;28;20228;-81
2023/03/24 00:56:42;;;;;;;5.90;2.90;;;9.20;99.90;;;;;;4969697;28;20231;-82
2023/03/24 00:59:09;;;;;;;5.77;2.90;;;9.20;99.90;;;;;;4968574;28;20398;-81
2023/03/24 01:01:39;;;;;;;3.97;3.13;;;9.10;99.90;;;;;;4968904;28;20279;-79
2023/03/24 01:04:09;;;;;;;4.77;3.07;;;9.20;99.90;;;;;;4969105;28;20226;-81
2023/03/24 01:06:38;;;;;;;7.30;3.10;;;9.20;99.90;;;;;;4981966;28;20295;-82
2023/03/24 01:09:07;;;;;;;7.43;3.20;;;9.10;99.90;;;;;;4980605;28;20316;-82
2023/03/24 01:11:38;;;;;;;7.17;2.70;;;9.10;99.90;;;;;;4964281;28;20233;-81
2023/03/24 01:14:05;;;;;;;3.63;2.50;;;9.00;99.90;;;;;;4979456;28;20232;-81
2023/03/24 01:16:32;;;;;;;4.17;2.70;;;9.00;99.90;;;;;;4966373;28;20249;-81
2023/03/24 01:18:59;;;;;;;8.83;3.40;;;9.00;99.90;;;;;;4963731;28;20742;-82
2023/03/24 01:21:26;;;;;;;5.10;2.70;;;9.00;99.90;;;;;;4960351;28;20217;-82
2023/03/24 01:23:53;;;;;;;5.43;2.80;;;9.00;99.90;;;;;;4965122;28;20781;-82
2023/03/24 01:26:21;;;;;;;6.53;2.83;;;8.90;99.90;;;;;;4960540;28;20221;-81
2023/03/24 01:28:48;;;;;;;6.80;2.97;;;8.90;99.90;;;;;;4962214;28;20224;-81
2023/03/24 01:31:15;;;;;;;6.80;3.57;;;8.90;99.90;;;;;;4962190;28;20337;-82
2023/03/24 01:33:42;;;;;;;6.83;2.80;;;8.90;99.90;;;;;;4965954;28;20634;-81
2023/03/24 01:36:09;;;;;;;5.60;2.70;;;8.90;99.90;;;;;;4980082;28;20237;-81
2023/03/24 01:38:36;;;;;;;7.97;3.07;;;8.90;99.90;;;;;;4965907;28;20358;-82
2023/03/24 01:41:05;;;;;;;3.67;2.60;;;8.90;99.90;;;;;;4967237;28;20863;-82
2023/03/24 01:43:35;;;;;;;5.30;2.90;;;8.90;99.90;;;;;;4964849;28;20308;-82
2023/03/24 01:46:08;;;;;;;5.90;2.87;;;8.90;99.90;;;;;;4979625;28;20233;-82
2023/03/24 01:48:40;;;;;;;5.07;2.80;;;8.80;99.90;;;;;;4975673;28;20786;-82
2023/03/24 01:51:11;;;;;;;4.30;2.80;;;8.90;99.90;;;;;;4980375;28;20729;-82
2023/03/24 01:53:43;;;;;;;5.00;2.73;;;8.80;99.90;;;;;;4975804;28;20235;-82
2023/03/24 01:56:11;;;;;;;5.50;3.13;;;8.80;99.90;;;;;;4958099;28;20240;-82
2023/03/24 01:58:48;;;;;;;6.10;2.57;;;8.80;99.90;;;;;;4977338;28;20236;-82
2023/03/24 02:01:25;;;;;;;5.13;3.10;;;8.80;99.90;;;;;;4980902;28;20216;-83
2023/03/24 02:04:04;;;;;;;6.20;2.70;;;8.80;99.90;;;;;;4980663;28;20234;-82
2023/03/24 02:06:34;;;;;;;6.67;2.87;;;8.70;99.90;;;;;;4964218;28;21536;-82
2023/03/24 02:09:03;;;;;;;4.40;2.60;;;8.70;99.90;;;;;;4960261;28;20237;-82
2023/03/24 02:11:32;;;;;;;5.33;2.70;;;8.70;99.90;;;;;;4979545;28;20651;-82
2023/03/24 02:14:05;;;;;;;5.27;3.00;;;8.70;99.90;;;;;;4977625;28;20273;-82
2023/03/24 02:16:59;;;;;;;6.83;2.90;;;8.70;99.90;;;;;;4961733;28;20748;-82
2023/03/24 02:19:57;;;;;;;6.03;2.93;;;8.60;99.90;;;;;;4974285;28;20281;-83
2023/03/24 02:22:52;;;;;;;7.97;2.87;;;8.60;99.90;;;;;;4970853;28;20243;-83
2023/03/24 02:25:50;;;;;;;7.10;3.10;;;8.70;99.90;;;;;;4979677;28;20319;-82
2023/03/24 02:28:30;;;;;;;5.23;2.80;;;8.70;99.90;;;;;;4964271;28;20228;-83
2023/03/24 02:31:17;;;;;;;7.93;3.23;;;8.70;99.90;;;;;;4965712;28;20230;-81
2023/03/24 02:34:26;;;;;;;5.27;2.97;;;8.60;99.90;;;;;;4981417;28;20236;-82
2023/03/24 02:37:26;;;;;;;5.77;2.57;;;8.60;99.90;;;;;;4978451;28;20212;-82
2023/03/24 02:40:15;;;;;;;6.03;3.20;;;8.60;99.90;;;;;;4941133;28;20850;-82
2023/03/24 02:42:52;;;;;;;6.57;2.97;;;8.70;99.90;;;;;;4960454;28;20256;-82
2023/03/24 02:45:27;;;;;;;4.83;2.47;;;8.70;99.90;;;;;;4979397;28;20229;-82
2023/03/24 02:48:06;;;;;;;5.63;2.90;;;8.60;99.90;;;;;;4977886;28;20243;-83
2023/03/24 02:50:41;;;;;;;4.60;2.50;;;8.60;99.90;;;;;;4964074;28;20238;-84
2023/03/24 02:53:15;;;;;;;5.23;3.33;;;8.70;99.90;;;;;;4958048;28;20232;-81
2023/03/24 02:56:10;;;;;;;4.17;3.00;;;8.70;99.90;;;;;;4977393;28;20220;-83
2023/03/24 02:58:41;;;;;;;21.93;3.27;;;8.70;99.90;;;;;;4976417;28;20776;-82
2023/03/24 03:01:13;;;;;;;5.23;2.80;;;8.70;99.90;;;;;;4975104;28;20309;-83
2023/03/24 03:04:07;;;;;;;6.30;3.07;;;8.70;99.90;;;;;;4962134;28;20998;-82
2023/03/24 03:06:38;;;;;;;8.07;3.50;;;8.70;99.90;;;;;;4961873;28;20253;-83
2023/03/24 03:09:09;;;;;;;4.27;2.77;;;8.70;99.90;;;;;;4972429;28;20517;-82
2023/03/24 03:11:40;;;;;;;6.03;2.90;;;8.70;99.90;;;;;;4960945;28;20225;-83
2023/03/24 03:14:10;;;;;;;4.60;2.93;;;8.70;99.90;;;;;;4960250;28;20228;-82
2023/03/24 03:16:42;;;;;;;7.77;3.07;;;8.70;99.90;;;;;;4960382;28;20240;-82
2023/03/24 03:19:16;;;;;;;4.57;2.67;;;8.60;99.90;;;;;;5002503;23;20279;-83
2023/03/24 03:21:48;;;;;;;5.97;3.10;;;8.60;99.90;;;;;;4982552;28;20767;-80
2023/03/24 03:24:25;;;;;;;6.07;3.53;;;8.70;99.90;;;;;;4987935;28;20835;-80
2023/03/24 03:26:56;;;;;;;6.03;3.33;;;8.60;99.90;;;;;;4986519;28;20223;-80
2023/03/24 03:29:29;;;;;;;5.00;3.13;;;8.60;99.90;;;;;;4972718;28;20324;-81
2023/03/24 03:32:06;;;;;;;3.50;2.73;;;8.70;99.90;;;;;;4989954;28;20664;-80
2023/03/24 03:34:40;;;;;;;5.53;3.03;;;8.70;99.90;;;;;;4989784;28;20813;-82
2023/03/24 03:37:13;;;;;;;5.23;2.87;;;8.70;99.90;;;;;;4978047;28;20320;-81
2023/03/24 03:39:45;;;;;;;5.23;3.40;;;8.70;99.90;;;;;;4991659;28;20303;-81
2023/03/24 03:42:14;;;;;;;5.77;3.07;;;8.70;99.90;;;;;;4969827;28;20233;-82
2023/03/24 03:44:41;;;;;;;7.20;3.80;;;8.80;99.90;;;;;;4970627;28;20240;-82
2023/03/24 03:47:08;;;;;;;5.17;3.20;;;8.80;99.90;;;;;;4976967;28;20308;-82
2023/03/24 03:49:40;;;;;;;6.87;3.37;;;8.70;99.90;;;;;;4985901;28;20806;-82
2023/03/24 03:52:06;;;;;;;5.47;3.07;;;8.70;99.90;;;;;;4986026;28;20358;-82
2023/03/24 03:54:34;;;;;;;4.97;3.47;;;8.70;99.90;;;;;;4979866;28;20321;-82
2023/03/24 03:57:01;;;;;;;6.63;3.17;;;8.80;99.90;;;;;;4984348;28;21452;-82
2023/03/24 03:59:39;;;;;;;5.60;3.10;;;8.90;99.90;;;;;;4986689;28;20317;-82
2023/03/24 04:02:29;;;;;;;3.63;2.90;;;8.90;99.90;;;;;;4978435;28;20286;-81
2023/03/24 04:05:13;;;;;;;3.60;2.97;;;9.00;99.90;;;;;;4984286;28;20235;-83
2023/03/24 04:08:22;;;;;;;5.53;3.10;;;9.00;99.90;;;;;;4987306;28;20224;-81
2023/03/24 04:11:31;;;;;;;5.50;3.27;;;9.00;99.90;;;;;;4991785;28;20808;-82
2023/03/24 04:14:36;;;;;;;4.90;3.47;;;9.00;99.90;;;;;;4978128;28;20216;-81
2023/03/24 04:17:45;;;;;;;4.57;2.80;;;9.00;99.90;;;;;;4982127;28;20224;-82
2023/03/24 04:20:23;;;;;;;4.57;3.20;;;9.10;99.90;;;;;;4986296;28;20243;-82
2023/03/24 04:23:01;;;;;;;4.80;3.30;;;9.10;99.90;;;;;;4984105;28;20224;-83
2023/03/24 04:25:34;;;;;;;4.60;2.97;;;9.10;99.90;;;;;;4982860;28;20298;-82
2023/03/24 04:28:09;;;;;;;4.73;3.30;;;9.20;99.90;;;;;;4983563;28;20255;-81
2023/03/24 04:30:42;;;;;;;4.30;3.50;;;9.30;99.90;;;;;;4980643;28;20644;-83
2023/03/24 04:33:17;;;;;;;4.57;3.30;;;9.30;99.90;;;;;;4983300;28;20673;-83
2023/03/24 04:35:52;;;;;;;3.93;3.03;;;9.30;99.90;;;;;;4973678;28;20767;-83
2023/03/24 04:38:26;;;;;;;5.73;3.20;;;9.30;99.90;;;;;;4985931;28;20243;-82
2023/03/24 04:41:16;;;;;;;4.00;2.87;;;9.40;99.90;;;;;;4984737;28;20233;-82
2023/03/24 04:43:48;;;;;;;5.20;3.37;;;9.40;99.90;;;;;;4979575;28;20213;-83
2023/03/24 04:46:16;;;;;;;5.13;2.93;;;9.50;99.90;;;;;;4980856;28;20221;-83
2023/03/24 04:49:06;;;;;;;5.33;3.13;;;9.50;99.90;;;;;;4983897;28;20697;-82
2023/03/24 04:51:35;;;;;;;5.27;3.30;;;9.50;99.90;;;;;;4985515;28;20577;-83
2023/03/24 04:54:05;;;;;;;5.33;3.10;;;9.50;99.90;;;;;;5001311;28;20244;-82
2023/03/24 04:56:40;;;;;;;3.53;3.23;;;9.60;99.90;;;;;;4985562;28;20233;-82
2023/03/24 04:59:12;;;;;;;3.93;3.30;;;9.60;99.90;;;;;;4984191;28;20221;-82
2023/03/24 05:01:39;;;;;;;5.83;3.17;;;9.60;99.90;;;;;;4987947;28;20315;-81
2023/03/24 05:04:26;;;;;;;4.30;3.07;;;9.60;99.90;;;;;;4993607;28;20328;-80
2023/03/24 05:06:54;;;;;;;6.53;3.53;;;9.60;99.90;;;;;;4992544;28;20256;-80
2023/03/24 05:09:25;;;;;;;4.30;3.33;;;9.60;99.90;;;;;;5003740;28;21014;-81
2023/03/24 05:11:53;;;;;;;5.37;3.27;;;9.60;99.90;;;;;;4986042;28;20715;-81
2023/03/24 05:14:22;;;;;;;3.50;3.20;;;9.60;99.90;;;;;;4994036;28;20220;-81
2023/03/24 05:16:49;;;;;;;5.67;3.47;;;9.60;99.90;;;;;;4990134;28;20577;-83
2023/03/24 05:19:19;;;;;;;4.73;3.00;;;9.60;99.90;;;;;;4983357;28;20229;-82
2023/03/24 05:21:47;;;;;;;5.63;3.30;;;9.60;99.90;;;;;;4986202;28;20251;-87
2023/03/24 05:24:14;;;;;;;5.17;3.33;;;9.60;99.90;;;;;;4994131;28;20292;-85
2023/03/24 05:26:41;;;;;;;5.50;3.37;;;9.70;99.90;;;;;;4981353;28;20813;-84
2023/03/24 05:29:13;;;;;;;10.10;3.43;;;9.60;99.90;;;;;;4984201;28;20973;-84
2023/03/24 05:31:40;;;;;;;4.30;3.23;;;9.70;99.90;;;;;;4985985;28;20296;-84
2023/03/24 05:34:09;;;;;;;11.83;3.63;;;9.70;99.90;;;;;;4983534;28;20217;-85
2023/03/24 05:36:52;;;;;;;13.37;3.43;;;9.70;99.90;;;;;;4987438;28;20217;-84
2023/03/24 05:39:21;;;;;;;7.30;3.10;;;9.70;99.90;;;;;;4981609;28;20312;-86
2023/03/24 05:42:08;;;;;;;5.70;2.80;;;9.70;99.90;;;;;;4980416;28;20217;-85
2023/03/24 05:44:35;;;;;;;22.40;4.20;;;9.80;99.90;;;;;;4979707;28;20229;-85
2023/03/24 05:47:09;;;;;;;19.97;3.90;;;9.90;99.90;;;;;;4977324;28;21239;-84
2023/03/24 05:49:36;;;;;;;7.13;3.37;;;9.90;99.90;;;;;;4979306;28;20237;-84
2023/03/24 05:52:07;;;;;;;5.33;3.67;;;9.90;99.90;;;;;;4975911;28;20291;-84
2023/03/24 05:54:35;;;;;;;4.37;2.90;;;9.90;99.90;;;;;;4982061;28;20600;-84
2023/03/24 05:57:14;;;;;;;12.13;3.50;;;9.90;99.90;;;;;;4981852;28;20222;-85
2023/03/24 05:59:59;;;;;;;4.73;2.90;;;9.90;99.90;;;;;;4987214;28;20229;-84
2023/03/24 06:02:47;;;;;;;5.80;2.97;;;10.00;99.90;;;;;;4980578;28;20742;-84
2023/03/24 06:05:44;;;;;;;6.63;3.17;;;10.00;99.90;;;;;;4974542;28;20372;-86
2023/03/24 06:08:13;;;;;;;5.40;3.23;;;10.10;99.90;;;;;;4984418;28;20669;-82
2023/03/24 06:10:40;;;;;;;4.83;3.00;;;10.10;99.90;;;;;;4982259;28;21387;-83
2023/03/24 06:13:07;;;;;;;6.87;4.10;;;10.10;99.90;;;;;;4979417;28;20608;-85
2023/03/24 06:15:38;;;;;;;4.20;2.90;;;10.10;99.90;;;;;;4979254;28;20649;-84
2023/03/24 06:18:33;;;;;;;4.17;2.90;;;10.10;99.90;;;;;;4969812;28;20280;-83
2023/03/24 06:21:07;;;;;;;5.53;3.10;;;10.10;99.90;;;;;;4983119;28;20225;-83
2023/03/24 06:23:37;;;;;;;3.53;2.77;;;10.10;99.90;;;;;;4982230;28;20253;-83
2023/03/24 06:26:11;;;;;;;3.63;2.60;;;10.10;99.90;;;;;;4976471;28;20272;-84
2023/03/24 06:28:50;;;;;;;2.90;2.60;;;10.10;99.90;;;;;;4982332;28;20630;-84
2023/03/24 06:31:20;;;;;;;2.90;2.60;;;10.20;99.90;;;;;;4984978;28;20223;-83
2023/03/24 06:33:47;;;;;;;4.93;2.60;;;10.20;99.90;;;;;;4983532;28;20496;-84
2023/03/24 06:36:15;;;;;;;3.90;2.30;;;10.20;99.90;;;;;;4973677;28;20279;-83
2023/03/24 06:38:45;;;;;;;5.13;3.00;;;10.20;99.90;;;;;;4982512;28;20281;-84
2023/03/24 06:41:16;;;;;;;4.47;2.50;;;10.20;99.90;;;;;;4986171;28;20744;-83
2023/03/24 06:43:43;;;;;;;2.47;2.27;;;10.30;99.90;;;;;;4987534;28;20245;-83
2023/03/24 06:46:10;;;;;;;4.63;2.47;;;10.20;99.90;;;;;;4986845;28;20229;-84
2023/03/24 06:48:40;;;;;;;2.90;2.60;;;10.30;99.90;;;;;;4975746;28;20259;-84
2023/03/24 06:51:08;;;;;;;3.63;2.40;;;10.30;99.90;;;;;;4982412;28;20242;-84
2023/03/24 06:53:36;;;;;;;2.73;2.47;;;10.30;99.90;;;;;;4985592;28;20226;-85
2023/03/24 06:56:05;;;;;;;4.00;2.33;;;10.40;99.90;;;;;;4979143;28;20730;-84
2023/03/24 06:58:38;;;;;;;2.83;2.40;;;10.30;99.90;;;;;;4986551;28;20252;-83
2023/03/24 07:01:08;;;;;;;2.50;2.30;;;10.40;99.90;;;;;;4974057;28;20246;-84
2023/03/24 07:03:37;;;;;;;3.57;2.37;;;10.40;99.90;;;;;;4992950;28;20236;-83
2023/03/24 07:06:17;;;;;;;2.77;2.30;;;10.40;99.90;;;;;;4983856;28;20222;-83
2023/03/24 07:08:45;;;;;;;4.27;2.40;;;10.50;99.90;;;;;;4985064;28;20241;-84
2023/03/24 07:11:14;;;;;;;3.30;2.23;;;10.50;99.90;;;;;;4982095;28;20214;-84
2023/03/24 07:13:48;;;;;;;3.30;2.60;;;10.50;99.90;;;;;;4977373;28;20245;-83
2023/03/24 07:16:16;;;;;;;2.50;2.10;;;10.60;99.90;;;;;;4983304;28;20229;-81
2023/03/24 07:18:43;;;;;;;2.67;2.40;;;10.60;99.90;;;;;;4984208;28;20230;-84
2023/03/24 07:21:10;;;;;;;2.67;2.10;;;10.60;99.90;;;;;;4986938;28;20590;-83
2023/03/24 07:23:37;;;;;;;3.43;2.40;;;10.70;99.90;;;;;;4981308;28;20238;-84
2023/03/24 07:26:15;;;;;;;3.90;2.30;;;10.70;99.90;;;;;;4983161;28;20249;-82
2023/03/24 07:28:47;;;;;;;3.60;2.40;;;10.70;99.90;;;;;;4990062;28;20267;-83
2023/03/24 07:31:44;;;;;;;2.90;2.03;;;10.70;99.90;;;;;;4979279;28;20233;-82
2023/03/24 07:34:13;;;;;;;2.53;1.47;;;10.70;99.90;;;;;;4984732;28;20309;-82
2023/03/24 07:36:40;;;;;;;1.90;1.53;;;10.70;99.90;;;;;;4985686;28;20219;-84
2023/03/24 07:39:12;;;;;;;3.10;1.70;;;10.70;99.90;;;;;;4985728;28;20448;-83
2023/03/24 07:41:40;;;;;;;2.10;1.23;;;10.70;99.90;;;;;;4987523;28;20792;-83
2023/03/24 07:44:14;;;;;;;2.03;1.40;;;10.70;99.90;;;;;;4983135;28;20225;-82
2023/03/24 07:46:48;;;;;;;1.83;1.23;;;10.80;99.90;;;;;;4981772;28;20293;-83
2023/03/24 07:49:16;;;;;;;2.73;1.33;;;10.80;99.90;;;;;;4982486;28;20307;-82
2023/03/24 07:51:43;;;;;;;1.60;1.30;;;10.90;99.90;;;;;;4991188;28;20239;-82
2023/03/24 07:54:26;;;;;;;3.27;1.40;;;10.90;99.90;;;;;;4978217;28;20368;-82
2023/03/24 07:56:55;;;;;;;2.47;1.30;;;11.00;99.90;;;;;;4979609;28;20227;-83
2023/03/24 07:59:21;;;;;;;2.47;1.30;;;11.10;99.90;;;;;;4983665;28;20226;-82
2023/03/24 08:01:51;;;;;;;3.63;1.43;;;11.20;99.90;;;;;;4983317;28;20322;-82
2023/03/24 08:04:23;;;;;;;3.43;1.33;;;11.30;99.90;;;;;;4978641;28;20223;-85
2023/03/24 08:07:11;;;;;;;4.13;1.50;;;11.30;99.90;;;;;;4977667;28;20363;-85
2023/03/24 08:09:38;;;;;;;3.27;1.40;;;11.40;99.90;;;;;;4985204;28;20326;-82
2023/03/24 08:12:06;;;;;;;3.63;1.23;;;11.50;99.90;;;;;;4983219;28;20232;-81
2023/03/24 08:14:33;;;;;;;1.80;1.27;;;11.70;99.90;;;;;;4983828;28;20227;-82
2023/03/24 08:16:59;;;;;;;5.90;1.43;;;11.80;99.90;;;;;;4983434;28;20766;-85
2023/03/24 08:19:26;;;;;;;4.40;1.40;;;12.10;99.90;;;;;;4984019;28;20232;-84
2023/03/24 08:21:53;;;;;;;4.27;1.20;;;12.30;99.90;;;;;;4982771;28;20237;-82
2023/03/24 08:24:19;;;;;;;4.63;1.27;;;12.50;99.90;;;;;;4983598;28;20954;-80
2023/03/24 08:26:46;;;;;;;4.83;1.43;;;12.70;99.90;;;;;;4985639;28;20223;-82
2023/03/24 08:29:14;;;;;;;8.80;1.60;;;12.90;99.90;;;;;;4985412;28;20234;-81
2023/03/24 08:31:41;;;;;;;5.53;1.60;;;13.10;99.90;;;;;;4985698;28;20237;-82
2023/03/24 08:34:10;;;;;;;6.20;1.87;;;13.30;99.90;;;;;;4979848;28;20236;-81
2023/03/24 08:36:37;;;;;;;6.10;1.90;;;13.50;99.90;;;;;;4978474;28;20231;-82
2023/03/24 08:39:05;;;;;;;5.63;1.70;;;13.70;99.90;;;;;;4981237;28;20232;-81
2023/03/24 08:41:34;;;;;;;5.40;1.50;;;13.70;99.90;;;;;;4977294;28;20227;-82
2023/03/24 08:44:02;;;;;;;6.63;1.77;;;13.70;99.90;;;;;;4984652;28;20227;-83
2023/03/24 08:46:30;;;;;;;7.57;1.30;;;13.60;99.90;;;;;;4980839;28;20651;-82
2023/03/24 08:48:57;;;;;;;7.53;1.87;;;13.40;99.90;;;;;;4977066;28;20234;-83
2023/03/24 08:51:24;;;;;;;3.23;1.40;;;13.20;99.90;;;;;;4981547;28;20236;-83
2023/03/24 08:53:52;;;;;;;7.63;2.20;;;13.00;99.90;;;;;;4980296;28;20232;-83
2023/03/24 08:56:20;;;;;;;7.10;1.50;;;12.90;99.90;;;;;;4975526;28;20231;-84
2023/03/24 08:58:47;;;;;;;6.87;1.73;;;12.90;99.90;;;;;;4979607;28;20237;-85
2023/03/24 09:01:14;;;;;;;3.60;1.40;;;12.90;99.90;;;;;;4976486;28;20224;-83
2023/03/24 09:03:43;;;;;;;5.57;1.70;;;13.10;99.90;;;;;;4979340;28;20809;-84
2023/03/24 09:06:10;;;;;;;4.73;1.60;;;13.30;99.90;;;;;;4974697;28;20224;-82
2023/03/24 09:08:37;;;;;;;8.90;1.87;;;13.40;99.90;;;;;;4984014;28;20306;-82
2023/03/24 09:11:05;;;;;;;6.10;1.53;;;13.50;99.90;;;;;;4982546;28;20230;-81
2023/03/24 09:13:31;;;;;;;4.83;1.40;;;13.70;99.90;;;;;;4984715;28;20233;-80
2023/03/24 09:16:00;;;;;;;6.60;1.97;;;13.90;99.90;;;;;;4986741;28;20236;-80
2023/03/24 09:18:27;;;;;;;4.63;1.30;;;13.90;99.90;;;;;;4987787;28;20238;-78
2023/03/24 09:20:55;;;;;;;6.23;1.20;;;13.90;99.90;;;;;;4990400;28;20219;-78
2023/03/24 09:23:22;;;;;;;6.07;1.60;;;13.70;99.90;;;;;;4985160;28;20295;-79
2023/03/24 09:25:50;;;;;;;6.87;1.83;;;13.50;99.90;;;;;;4983872;28;20224;-79
2023/03/24 09:28:16;;;;;;;5.87;1.50;;;13.40;99.90;;;;;;4986617;28;20228;-79
2023/03/24 09:30:43;;;;;;;7.90;1.77;;;13.20;99.90;;;;;;4985887;28;20227;-79
2023/03/24 09:33:10;;;;;;;6.10;1.67;;;13.00;99.90;;;;;;4984132;28;20231;-79
2023/03/24 09:35:36;;;;;;;5.67;1.80;;;12.90;99.90;;;;;;4982140;28;20319;-79
2023/03/24 09:38:04;;;;;;;4.10;1.30;;;12.80;99.90;;;;;;4987298;28;20831;-79
2023/03/24 09:40:35;;;;;;;6.07;1.63;;;12.70;99.90;;;;;;4983132;28;20309;-79
2023/03/24 09:43:06;;;;;;;7.73;2.00;;;12.50;99.90;;;;;;4983202;28;20747;-79
2023/03/24 09:45:36;;;;;;;6.63;1.77;;;12.40;99.90;;;;;;4985075;28;20288;-79
2023/03/24 09:48:08;;;;;;;4.83;1.70;;;12.30;99.90;;;;;;4985294;28;20289;-79
2023/03/24 09:50:39;;;;;;;5.97;1.80;;;12.20;99.90;;;;;;4984358;28;20268;-79
2023/03/24 09:53:15;;;;;;;8.83;1.93;;;12.10;99.90;;;;;;4980932;28;20249;-78
2023/03/24 09:55:44;;;;;;;5.47;1.63;;;12.00;99.90;;;;;;4977367;28;20232;-79
2023/03/24 09:58:13;;;;;;;5.73;1.63;;;11.90;99.90;;;;;;4984109;28;20224;-79
2023/03/24 10:00:40;;;;;;;5.63;2.03;;;11.80;99.90;;;;;;4986887;28;20223;-79
2023/03/24 10:03:19;;;;;;;6.37;1.70;;;11.80;99.90;;;;;;5000571;28;20222;-79
2023/03/24 10:05:51;;;;;;;7.17;1.93;;;11.80;99.90;;;;;;4984336;28;20286;-79
2023/03/24 10:08:26;;;;;;;6.67;1.70;;;11.80;99.90;;;;;;4981052;28;20741;-79
2023/03/24 10:11:01;;;;;;;8.23;2.33;;;11.80;99.90;;;;;;4989261;28;20232;-78
2023/03/24 10:13:39;;;;;;;6.07;1.90;;;11.80;99.90;;;;;;4981854;28;20709;-79
2023/03/24 10:16:12;;;;;;;9.40;1.70;;;11.80;99.90;;;;;;4981648;28;21093;-79
2023/03/24 10:18:47;;;;;;;6.50;1.70;;;11.80;99.90;;;;;;4979263;28;20238;-79
2023/03/24 10:21:19;;;;;;;8.03;1.90;;;11.80;99.90;;;;;;4984209;28;20250;-79
2023/03/24 10:23:53;;;;;;;6.17;2.07;;;11.80;99.90;;;;;;4983235;28;20322;-79
2023/03/24 10:26:34;;;;;;;4.63;1.83;;;11.90;99.90;;;;;;4976923;28;20304;-79
2023/03/24 10:29:15;;;;;;;6.83;2.40;;;11.90;99.90;;;;;;4987135;28;20260;-78
2023/03/24 10:31:47;;;;;;;7.10;2.20;;;12.00;99.90;;;;;;4983206;28;20893;-79
2023/03/24 10:34:14;;;;;;;8.43;2.27;;;12.10;99.90;;;;;;4976276;28;20287;-79
2023/03/24 10:36:42;;;;;;;7.80;1.80;;;12.30;99.90;;;;;;4987070;28;20252;-79
2023/03/24 10:39:14;;;;;;;8.97;1.77;;;12.50;99.90;;;;;;4983628;28;20226;-78
2023/03/24 10:41:42;;;;;;;7.23;2.00;;;12.70;99.90;;;;;;4983959;28;20236;-79
2023/03/24 10:44:11;;;;;;;6.93;2.00;;;12.90;99.90;;;;;;4982233;28;20615;-79
2023/03/24 10:46:44;;;;;;;5.40;1.90;;;13.10;99.90;;;;;;4983533;28;20308;-79
2023/03/24 10:49:16;;;;;;;5.47;1.67;;;13.20;99.90;;;;;;4981213;28;20275;-79
2023/03/24 10:51:46;;;;;;;7.90;1.83;;;13.30;99.90;;;;;;4987880;28;20246;-79
2023/03/24 10:54:17;;;;;;;9.73;2.03;;;13.40;99.90;;;;;;4979158;28;20240;-78
2023/03/24 10:56:46;;;;;;;8.27;1.80;;;13.60;99.90;;;;;;4980949;28;20503;-78
2023/03/24 10:59:27;;;;;;;4.00;1.40;;;13.70;99.90;;;;;;4985344;28;20273;-78
2023/03/24 11:02:07;;;;;;;4.00;1.70;;;13.70;99.90;;;;;;4983246;28;20233;-79
2023/03/24 11:04:34;;;;;;;5.97;2.47;;;13.80;99.90;;;;;;4984007;28;20229;-80
2023/03/24 11:07:05;;;;;;;8.10;1.70;;;13.70;99.90;;;;;;4988575;28;20597;-79
2023/03/24 11:09:41;;;;;;;5.63;1.83;;;13.70;99.90;;;;;;4985316;28;20227;-79
2023/03/24 11:12:21;;;;;;;6.37;1.90;;;13.70;99.90;;;;;;4984355;28;20730;-79
2023/03/24 11:14:47;;;;;;;5.80;1.70;;;13.80;99.90;;;;;;4981559;28;20295;-78
2023/03/24 11:17:15;;;;;;;7.00;1.70;;;14.00;99.90;;;;;;4977880;28;20227;-78
2023/03/24 11:19:51;;;;;;;7.47;2.00;;;14.20;99.90;;;;;;4975662;28;20232;-78
2023/03/24 11:22:18;;;;;;;4.33;1.63;;;14.40;99.90;;;;;;4979234;28;20230;-78
2023/03/24 11:24:50;;;;;;;5.07;1.47;;;14.60;99.90;;;;;;4977731;28;20238;-78
2023/03/24 11:27:17;;;;;;;5.80;1.50;;;14.90;99.90;;;;;;4976866;28;20221;-78
2023/03/24 11:29:50;;;;;;;7.00;1.80;;;15.10;99.90;;;;;;4979669;28;20221;-78
2023/03/24 11:32:25;;;;;;;7.10;1.97;;;15.40;99.90;;;;;;4984066;28;20291;-78
2023/03/24 11:35:02;;;;;;;6.97;1.77;;;15.60;99.90;;;;;;4982612;28;20306;-78
2023/03/24 11:37:32;;;;;;;4.20;1.77;;;15.70;99.00;;;;;;4983608;28;20234;-78
2023/03/24 11:40:21;;;;;;;6.57;1.83;;;15.90;98.90;;;;;;4984850;28;20220;-78
2023/03/24 11:42:49;;;;;;;6.70;2.00;;;16.00;98.20;;;;;;4976861;28;20238;-78
2023/03/24 11:45:27;;;;;;;6.80;1.83;;;16.20;99.10;;;;;;4982684;28;20248;-78
2023/03/24 11:47:57;;;;;;;7.47;1.63;;;16.40;98.30;;;;;;4980937;28;20230;-78
2023/03/24 11:50:28;;;;;;;8.33;2.17;;;16.70;99.20;;;;;;4982640;28;20239;-78
2023/03/24 11:53:02;;;;;;;6.40;1.80;;;17.00;97.50;;;;;;4985035;28;20228;-78
2023/03/24 11:55:36;;;;;;;6.50;2.07;;;17.10;97.50;;;;;;4979157;28;20248;-78
2023/03/24 11:58:06;;;;;;;4.27;1.67;;;17.30;97.20;;;;;;4984341;28;20228;-79
2023/03/24 12:00:37;;;;;;;6.40;1.73;;;17.40;96.60;;;;;;4975260;28;20612;-78
2023/03/24 12:03:32;;;;;;;8.17;1.93;;;17.50;96.90;;;;;;4979472;28;20743;-78
2023/03/24 12:06:07;;;;;;;6.30;1.90;;;17.60;95.60;;;;;;4982463;28;20225;-79
2023/03/24 12:08:47;;;;;;;7.03;2.03;;;17.70;96.20;;;;;;4975172;28;22176;-78
2023/03/24 12:11:19;;;;;;;8.37;2.53;;;17.70;95.00;;;;;;4979935;28;20233;-78
2023/03/24 12:13:50;;;;;;;5.93;1.80;;;17.70;95.30;;;;;;4980687;28;20226;-79
2023/03/24 12:16:32;;;;;;;6.90;2.13;;;17.60;95.00;;;;;;4977150;28;20277;-76
2023/03/24 12:19:26;;;;;;;7.17;2.17;;;17.50;94.60;;;;;;4979889;28;20233;-77
2023/03/24 12:22:04;;;;;;;7.70;2.10;;;17.30;95.00;;;;;;4972307;28;20856;-78
2023/03/24 12:24:45;;;;;;;8.73;2.27;;;17.10;94.30;;;;;;4978353;28;20230;-78
2023/03/24 12:27:23;;;;;;;6.77;2.13;;;16.90;93.30;;;;;;4982902;28;20288;-78
2023/03/24 12:29:59;;;;;;;6.33;2.47;;;16.70;94.20;;;;;;4976738;28;20237;-78
2023/03/24 12:32:37;;;;;;;10.50;2.33;;;16.50;94.90;;;;;;4976275;28;20232;-79
2023/03/24 12:35:26;;;;;;;8.30;2.27;;;16.40;94.80;;;;;;4983404;28;20232;-78
2023/03/24 12:38:04;;;;;;;8.53;2.13;;;16.20;95.20;;;;;;4976268;28;20230;-77
2023/03/24 12:40:54;;;;;;;8.20;2.10;;;16.00;95.40;;;;;;4974544;28;20252;-77
2023/03/24 12:43:31;;;;;;;6.63;1.90;;;15.80;95.80;;;;;;4980501;28;20212;-78
2023/03/24 12:46:04;;;;;;;11.27;2.40;;;15.60;96.10;;;;;;4977158;28;20233;-78
2023/03/24 12:48:51;;;;;;;9.57;2.10;;;15.50;96.60;;;;;;4978697;28;20236;-78
2023/03/24 12:51:27;;;;;;;7.03;2.17;;;15.50;95.40;;;;;;4977472;28;20235;-79
2023/03/24 12:54:09;;;;;;;5.47;2.17;;;15.40;95.70;;;;;;4985168;28;20310;-78
2023/03/24 12:56:40;;;;;;;6.47;2.33;;;15.30;95.40;;;;;;4979406;28;20263;-78
2023/03/24 12:59:13;;;;;;;9.57;2.07;;;15.20;95.70;;;;;;4986176;28;20224;-78
2023/03/24 13:01:42;;;;;;;10.80;2.37;;;15.10;95.80;;;;;;4981754;28;20388;-78
2023/03/24 13:04:15;;;;;;;8.33;2.50;;;14.90;96.00;;;;;;4980847;28;20233;-78
2023/03/24 13:06:48;;;;;;;6.97;2.30;;;14.80;96.10;;;;;;4979900;28;20226;-79
2023/03/24 13:09:25;;;;;;;7.53;2.00;;;14.60;96.30;;;;;;4986537;28;20229;-78
2023/03/24 13:11:57;;;;;;;8.90;2.20;;;14.50;96.70;;;;;;4982568;28;20236;-79
2023/03/24 13:14:31;;;;;;;6.73;1.90;;;14.50;97.00;;;;;;4981656;28;20242;-78
2023/03/24 13:17:04;;;;;;;8.97;2.30;;;14.50;96.80;;;;;;4982074;28;20232;-79
2023/03/24 13:19:33;;;;;;;6.87;2.33;;;14.50;97.10;;;;;;4983903;28;20731;-78
2023/03/24 13:22:01;;;;;;;7.27;2.40;;;14.60;97.20;;;;;;4981120;28;20277;-79